Time;durP1;ratioP1;P1;durP2;ratioP2;P2;SDS_P1;SDS_P2;PMS_P1;PMS_P2;Temp;Humidity;BMP_temperature;BMP_pressure;BME280_temperature;BME280_humidity;BME280_pressure;Samples;Min_cycle;Max_cycle;Signal;HPM_P1;HPM_P2
2023/03/28 00:07:59;;;;;;;47.80;28.10;;;;;;;-5.83;77.32;99082.39;438938;1253;138887;-76
2023/03/28 00:18:07;;;;;;;44.30;25.70;;;;;;;-5.92;77.56;99078.52;439192;1253;138947;-75
2023/03/28 00:28:13;;;;;;;47.10;27.10;;;;;;;-6.00;78.00;99071.25;438852;1250;139082;-75
2023/03/28 00:38:18;;;;;;;45.10;26.70;;;;;;;-6.11;78.43;99071.64;438637;1250;139513;-76
2023/03/28 00:48:24;;;;;;;41.60;26.30;;;;;;;-6.22;78.70;99063.87;438674;1253;140625;-76
2023/03/28 00:58:35;;;;;;;42.00;26.80;;;;;;;-6.34;79.00;99062.39;438706;1253;139250;-75
2023/03/28 01:08:45;;;;;;;37.40;22.60;;;;;;;-6.42;79.42;99069.39;438716;1253;139209;-74
2023/03/28 01:18:52;;;;;;;25.80;17.90;;;;;;;-6.45;79.74;99072.98;438735;1253;139985;-74
2023/03/28 01:29:38;;;;;;;26.30;15.90;;;;;;;-6.49;79.84;99060.05;439038;1250;139219;-74
2023/03/28 01:39:59;;;;;;;24.80;16.90;;;;;;;-6.46;79.95;99034.31;438808;1251;139238;-75
2023/03/28 01:50:13;;;;;;;24.50;15.70;;;;;;;-6.10;80.36;99022.57;438962;1252;139201;-75
2023/03/28 02:00:25;;;;;;;24.80;14.50;;;;;;;-5.63;80.16;99020.38;438713;1251;139369;-75
2023/03/28 02:10:33;;;;;;;20.80;12.90;;;;;;;-5.04;79.70;99016.29;438939;1249;138864;-76
2023/03/28 02:20:40;;;;;;;20.00;12.90;;;;;;;-4.60;79.06;99006.79;439345;1253;139146;-75
2023/03/28 02:30:46;;;;;;;19.20;12.50;;;;;;;-4.28;78.79;99001.44;439132;1253;139249;-74
2023/03/28 02:41:04;;;;;;;17.90;11.90;;;;;;;-3.91;78.77;98999.75;439546;1250;139459;-75
2023/03/28 02:51:22;;;;;;;18.80;10.10;;;;;;;-3.64;78.42;98993.88;439543;1251;139352;-75
2023/03/28 03:01:28;;;;;;;15.10;9.50;;;;;;;-3.43;78.32;98986.17;439038;1253;139500;-74
2023/03/28 03:11:35;;;;;;;12.70;8.00;;;;;;;-3.25;78.33;98980.06;438708;1253;140845;-75
2023/03/28 03:21:41;;;;;;;12.20;6.90;;;;;;;-3.26;78.50;98974.92;439314;1254;139060;-75
2023/03/28 03:31:47;;;;;;;13.00;7.40;;;;;;;-3.20;79.40;98979.79;439408;1251;138779;-74
2023/03/28 03:41:53;;;;;;;8.30;6.20;;;;;;;-2.95;80.07;98974.20;439517;1251;138983;-75
2023/03/28 03:52:00;;;;;;;10.80;6.40;;;;;;;-2.75;80.81;98962.02;439165;1253;138642;-74
2023/03/28 04:02:05;;;;;;;8.10;6.50;;;;;;;-2.60;81.31;98960.52;439012;1251;139320;-75
2023/03/28 04:12:13;;;;;;;8.40;6.10;;;;;;;-2.39;81.85;98958.89;439149;1253;138963;-75
2023/03/28 04:22:34;;;;;;;8.00;7.00;;;;;;;-2.30;82.23;98959.03;439147;1253;138589;-75
2023/03/28 04:32:49;;;;;;;;;;;;;;;-2.35;82.92;98965.84;439813;1250;138907;-75
2023/03/28 04:42:55;;;;;;;9.50;8.50;;;;;;;-2.22;83.58;98969.51;439124;1253;125809;-75
2023/03/28 04:53:01;;;;;;;12.10;9.10;;;;;;;-2.03;84.22;98966.34;439214;1253;140033;-75
2023/03/28 05:03:13;;;;;;;11.10;9.10;;;;;;;-1.71;84.65;98971.42;439753;1253;138618;-75
2023/03/28 05:13:19;;;;;;;9.70;8.30;;;;;;;-1.57;84.32;98976.61;439804;1253;140423;-75
2023/03/28 05:23:26;;;;;;;8.30;4.80;;;;;;;-1.56;83.93;98980.02;439000;1253;139598;-74
2023/03/28 05:33:32;;;;;;;3.80;3.40;;;;;;;-1.48;82.93;98983.25;439194;1253;139571;-73
2023/03/28 05:43:38;;;;;;;5.40;2.60;;;;;;;-1.25;82.27;98985.45;439139;1253;138680;-72
2023/03/28 05:53:44;;;;;;;6.40;2.40;;;;;;;-1.10;81.53;98986.61;439392;1256;139463;-72
2023/03/28 06:03:51;;;;;;;2.40;1.70;;;;;;;-0.97;80.78;98992.28;439420;1253;138385;-73
2023/03/28 06:13:57;;;;;;;3.10;2.20;;;;;;;-0.91;79.87;98996.42;438831;1253;140303;-72
2023/03/28 06:24:03;;;;;;;3.80;2.50;;;;;;;-0.86;79.28;99000.94;439347;1256;139159;-72
2023/03/28 06:34:09;;;;;;;4.00;2.80;;;;;;;-0.89;79.56;99013.38;439194;1253;138475;-73
2023/03/28 06:44:15;;;;;;;4.40;4.00;;;;;;;-0.87;80.06;99023.63;439571;1251;139502;-73
2023/03/28 06:54:21;;;;;;;2.80;2.10;;;;;;;-0.80;79.78;99038.25;439318;1251;138585;-73
2023/03/28 07:04:28;;;;;;;5.50;3.20;;;;;;;-0.74;80.16;99045.65;439393;1254;140859;-73
2023/03/28 07:14:35;;;;;;;2.80;2.50;;;;;;;-0.41;80.81;99056.96;439572;1253;138728;-71
2023/03/28 07:24:39;;;;;;;;;;;;;;;-0.20;80.27;99070.33;439269;1254;138879;-72
2023/03/28 07:34:46;;;;;;;2.50;2.30;;;;;;;-0.32;80.52;99075.46;439583;1253;124931;-73
2023/03/28 07:44:51;;;;;;;;;;;;;;;-0.98;81.19;99099.85;439453;1251;139031;-74
2023/03/28 07:54:57;;;;;;;2.60;1.20;;;;;;;-1.85;82.31;99144.37;439736;1251;125972;-75
2023/03/28 08:05:03;;;;;;;1.40;1.30;;;;;;;-2.01;82.68;99185.86;439773;1253;140226;-74
2023/03/28 08:15:11;;;;;;;2.00;1.80;;;;;;;-0.62;80.63;99216.31;439626;1253;138683;-75
2023/03/28 08:25:18;;;;;;;5.00;4.40;;;;;;;0.03;78.95;99235.58;439914;1253;139358;-74
2023/03/28 08:35:24;;;;;;;4.80;3.80;;;;;;;1.44;79.07;99249.84;439750;1251;138467;-73
2023/03/28 08:45:42;;;;;;;3.90;2.80;;;;;;;4.18;72.89;99261.27;439615;1251;139050;-74
2023/03/28 08:55:49;;;;;;;7.40;4.70;;;;;;;7.63;68.08;99278.12;440218;1251;138970;-75
2023/03/28 09:06:07;;;;;;;1.70;1.50;;;;;;;6.53;61.80;99289.41;440592;1251;138519;-74
2023/03/28 09:16:32;;;;;;;3.00;2.30;;;;;;;5.14;61.02;99319.80;439824;1253;138469;-75
2023/03/28 09:26:43;;;;;;;1.80;1.40;;;;;;;4.55;58.53;99334.06;439870;1251;139079;-74
2023/03/28 09:36:53;;;;;;;1.70;1.30;;;;;;;4.02;57.08;99339.36;439354;1254;137785;-75
2023/03/28 09:47:02;;;;;;;2.00;1.80;;;;;;;3.45;56.91;99350.29;439608;1251;138881;-73
2023/03/28 09:57:08;;;;;;;2.20;1.80;;;;;;;2.88;56.22;99372.10;439702;1251;137659;-74
2023/03/28 10:07:32;;;;;;;2.60;1.60;;;;;;;2.25;56.57;99388.55;439399;1253;138369;-74
2023/03/28 10:17:40;;;;;;;3.10;1.60;;;;;;;2.16;56.43;99404.05;440232;1251;138378;-75
2023/03/28 10:27:47;;;;;;;1.70;1.20;;;;;;;2.42;54.76;99406.13;439535;1251;137765;-73
2023/03/28 10:37:56;;;;;;;2.10;1.50;;;;;;;2.15;55.30;99425.17;439573;1251;138270;-74
2023/03/28 10:48:07;;;;;;;2.20;1.50;;;;;;;2.32;54.77;99432.91;439420;1251;206021;-75
2023/03/28 10:58:20;;;;;;;1.00;0.90;;;;;;;2.26;55.39;99439.14;440191;1253;138166;-74
2023/03/28 11:08:47;;;;;;;1.60;1.10;;;;;;;2.48;54.16;99440.50;439849;1251;137861;-73
2023/03/28 11:18:59;;;;;;;;;;;;;;;2.99;54.32;99444.35;439434;1251;138351;-73
2023/03/28 11:29:20;;;;;;;2.30;1.90;;;;;;;2.66;53.56;99463.58;440379;1251;125339;-73
2023/03/28 11:39:43;;;;;;;3.60;1.40;;;;;;;1.88;54.28;99476.58;439620;1250;137718;-74
2023/03/28 11:50:00;;;;;;;2.60;1.30;;;;;;;1.92;54.11;99477.85;439679;1250;138895;-74
2023/03/28 12:00:20;;;;;;;4.50;2.00;;;;;;;1.61;53.71;99487.19;440106;1251;138659;-75
2023/03/28 12:10:42;;;;;;;1.30;1.00;;;;;;;1.31;54.09;99505.27;439892;1251;139011;-74
2023/03/28 12:20:59;;;;;;;3.40;1.10;;;;;;;1.93;53.86;99509.23;439863;1251;139704;-74
2023/03/28 12:31:15;;;;;;;2.90;1.50;;;;;;;1.99;53.83;99526.86;439857;1250;138089;-74
2023/03/28 12:41:24;;;;;;;2.00;1.70;;;;;;;1.87;53.17;99524.08;440281;1250;138245;-73
2023/03/28 12:51:36;;;;;;;1.20;1.00;;;;;;;2.25;52.52;99532.98;441410;1250;138360;-72
2023/03/28 13:01:50;;;;;;;2.00;1.30;;;;;;;1.68;55.13;99569.81;440192;1254;138147;-73
2023/03/28 13:12:04;;;;;;;2.40;1.80;;;;;;;0.78;59.92;99586.10;439988;1251;138219;-73
2023/03/28 13:22:27;;;;;;;1.00;1.00;;;;;;;0.66;60.68;99569.15;440222;1251;137560;-73
2023/03/28 13:32:44;;;;;;;2.20;1.50;;;;;;;0.73;57.78;99582.09;439228;1250;138446;-74
2023/03/28 13:43:00;;;;;;;1.20;0.80;;;;;;;0.35;59.02;99603.25;439796;1251;138145;-73
2023/03/28 13:53:06;;;;;;;2.40;1.40;;;;;;;0.45;58.64;99603.38;439185;1250;138247;-73
2023/03/28 14:03:15;;;;;;;1.00;0.80;;;;;;;0.94;58.09;99602.94;439087;1253;139254;-72
2023/03/28 14:13:25;;;;;;;4.30;1.10;;;;;;;0.95;56.06;99614.14;439116;1251;137694;-65
2023/03/28 14:23:37;;;;;;;2.00;1.80;;;;;;;0.98;56.41;99628.89;436891;1251;137869;-72
2023/03/28 14:33:46;;;;;;;7.50;1.90;;;;;;;0.84;57.49;99646.09;439903;1250;138364;-73
2023/03/28 14:44:07;;;;;;;2.10;1.40;;;;;;;0.72;58.43;99644.31;439679;1253;137790;-73
2023/03/28 14:54:22;;;;;;;1.70;1.10;;;;;;;0.57;57.84;99648.40;439284;1253;138138;-74
2023/03/28 15:04:29;;;;;;;1.60;1.40;;;;;;;0.35;58.54;99675.75;440061;1253;139917;-73
2023/03/28 15:14:44;;;;;;;2.20;2.00;;;;;;;0.14;61.78;99697.71;439840;1251;138012;-74
2023/03/28 15:24:52;;;;;;;3.10;1.70;;;;;;;0.04;62.58;99692.73;439509;1253;138810;-74
2023/03/28 15:35:07;;;;;;;3.00;1.70;;;;;;;-0.04;61.57;99687.02;439837;1251;138432;-73
2023/03/28 15:45:39;;;;;;;2.30;1.80;;;;;;;-0.13;61.40;99709.55;439989;1250;138483;-73
2023/03/28 15:55:49;;;;;;;4.20;1.40;;;;;;;-0.52;62.07;99724.66;440006;1251;139879;-73
2023/03/28 16:06:18;;;;;;;4.00;1.70;;;;;;;-0.86;61.61;99736.52;439217;1251;139493;-73
2023/03/28 16:16:40;;;;;;;3.00;1.90;;;;;;;-1.19;61.45;99751.08;439392;1251;139063;-73
2023/03/28 16:27:07;;;;;;;2.20;1.60;;;;;;;-1.32;61.42;99763.25;439492;1250;138600;-74
2023/03/28 16:37:20;;;;;;;7.00;2.80;;;;;;;-1.47;61.50;99778.38;439214;1250;138714;-75
2023/03/28 16:47:46;;;;;;;4.40;2.80;;;;;;;-1.38;61.38;99795.45;439201;1250;139087;-74
2023/03/28 16:57:59;;;;;;;3.20;2.40;;;;;;;-1.34;61.24;99812.25;439795;1250;138968;-73
2023/03/28 17:08:25;;;;;;;3.30;2.40;;;;;;;-1.32;60.17;99818.75;439627;1249;138522;-74
2023/03/28 17:18:49;;;;;;;7.00;2.30;;;;;;;-1.28;59.40;99824.88;439343;1251;139421;-73
2023/03/28 17:28:57;;;;;;;2.50;1.80;;;;;;;-1.28;58.65;99833.30;439194;1250;137738;-74
2023/03/28 17:39:12;;;;;;;3.80;2.20;;;;;;;-1.19;58.06;99841.27;439214;1251;136626;-71
2023/03/28 17:49:38;;;;;;;2.20;1.90;;;;;;;-1.12;57.79;99853.56;439164;1253;138907;-72
2023/03/28 17:59:43;;;;;;;;;;;;;;;-1.11;57.23;99855.25;439237;1251;139133;-72
2023/03/28 18:10:10;;;;;;;4.50;2.00;;;;;;;-1.07;56.57;99866.73;439391;1251;124755;-75
2023/03/28 18:20:18;;;;;;;3.10;1.80;;;;;;;-1.05;55.99;99878.21;439459;1250;138724;-73
2023/03/28 18:30:47;;;;;;;3.70;2.20;;;;;;;-1.06;55.87;99890.25;439506;1253;137865;-74
2023/03/28 18:41:13;;;;;;;4.60;3.00;;;;;;;-1.10;55.89;99897.00;439247;1253;138644;-73
2023/03/28 18:51:20;;;;;;;5.60;2.60;;;;;;;-1.19;55.51;99902.60;439332;1253;138569;-73
2023/03/28 19:01:38;;;;;;;6.10;3.80;;;;;;;-1.22;54.82;99909.50;439090;1253;137985;-74
2023/03/28 19:12:07;;;;;;;2.40;1.50;;;;;;;-1.28;54.26;99919.53;439174;1251;140491;-74
2023/03/28 19:22:14;;;;;;;2.10;1.90;;;;;;;-1.42;54.30;99921.36;439248;1250;137947;-74
2023/03/28 19:32:40;;;;;;;5.10;1.80;;;;;;;-1.54;53.79;99922.52;439377;1253;137888;-72
2023/03/28 19:43:06;;;;;;;3.20;1.70;;;;;;;-1.58;53.32;99927.19;439453;1251;138275;-73
2023/03/28 19:53:32;;;;;;;6.60;2.60;;;;;;;-1.68;53.59;99940.66;439931;1251;137767;-74
2023/03/28 20:03:51;;;;;;;3.20;2.20;;;;;;;-1.82;53.88;99950.05;439821;1251;137897;-74
2023/03/28 20:14:19;;;;;;;5.10;3.00;;;;;;;-1.93;54.08;99952.87;440006;1251;138370;-73
2023/03/28 20:24:42;;;;;;;4.50;3.00;;;;;;;-2.00;54.35;99950.51;439585;1250;137778;-73
2023/03/28 20:35:09;;;;;;;7.90;4.50;;;;;;;-2.27;54.95;99961.64;438049;1252;138153;-73
2023/03/28 20:45:22;;;;;;;7.50;3.90;;;;;;;-2.49;55.38;99976.33;439577;1253;138180;-73
2023/03/28 20:55:49;;;;;;;7.60;5.70;;;;;;;-2.72;55.91;99978.64;439554;1250;137980;-74
2023/03/28 21:06:16;;;;;;;8.30;5.70;;;;;;;-2.95;56.47;99980.92;439593;1251;140795;-73
2023/03/28 21:16:42;;;;;;;8.40;4.40;;;;;;;-3.06;56.82;99984.55;440064;1251;137980;-73
2023/03/28 21:27:00;;;;;;;6.20;4.20;;;;;;;-3.20;57.38;99989.36;440085;1250;139063;-74
2023/03/28 21:37:25;;;;;;;6.00;3.90;;;;;;;-3.38;58.10;100003.77;439903;1253;138824;-74
2023/03/28 21:47:49;;;;;;;6.80;3.60;;;;;;;-3.54;58.69;100013.17;439717;1253;138651;-73
2023/03/28 21:58:14;;;;;;;6.20;3.30;;;;;;;-3.74;59.23;100013.67;439773;1251;140028;-72
2023/03/28 22:08:41;;;;;;;6.80;3.90;;;;;;;-3.94;59.84;100019.45;439710;1253;138121;-73
2023/03/28 22:19:10;;;;;;;5.50;3.70;;;;;;;-3.99;60.67;100013.96;439731;1253;139289;-73
2023/03/28 22:29:35;;;;;;;6.20;3.90;;;;;;;-4.11;61.16;100014.63;439591;1251;140063;-74
2023/03/28 22:39:59;;;;;;;;;;;;;;;-4.28;61.79;100020.72;440003;1253;138716;-73
2023/03/28 22:50:13;;;;;;;5.50;3.60;;;;;;;-4.42;62.36;100027.67;439308;1251;173768;-73
2023/03/28 23:00:39;;;;;;;7.20;4.20;;;;;;;-4.60;63.09;100030.32;437787;1251;138236;-75
2023/03/28 23:11:05;;;;;;;9.90;5.00;;;;;;;-4.85;63.88;100028.13;441439;1253;139601;-76
2023/03/28 23:21:11;;;;;;;12.50;5.50;;;;;;;-5.02;64.38;100027.52;440262;1250;139046;-76
2023/03/28 23:31:17;;;;;;;8.20;5.20;;;;;;;-5.26;64.79;100027.17;439745;1253;140389;-75
2023/03/28 23:41:23;;;;;;;10.70;6.00;;;;;;;-5.43;65.39;100033.86;439813;1253;141518;-75
2023/03/28 23:51:30;;;;;;;9.70;6.50;;;;;;;-5.53;65.76;100029.86;439706;1254;140395;-77
